createdAt,value
2023-02-05T00:00:06.333Z,120.2
2023-02-05T00:15:02.546Z,120.2
2023-02-05T00:30:03.093Z,120.2
2023-02-05T00:45:01.479Z,120.2
2023-02-05T01:00:02.012Z,120.2
2023-02-05T01:15:02.573Z,120.2
2023-02-05T01:30:03.067Z,120.2
2023-02-05T01:45:01.646Z,120.2
2023-02-05T02:00:01.997Z,120.2
2023-02-05T02:15:02.416Z,120.2
2023-02-05T02:30:02.963Z,120.2
2023-02-05T02:45:01.442Z,120.2
2023-02-05T03:00:02.353Z,125.67
2023-02-05T03:15:01.740Z,125.83
2023-02-05T03:30:02.413Z,125.83
2023-02-05T03:45:02.725Z,125.83
2023-02-05T04:00:01.560Z,125.71
2023-02-05T04:15:02.473Z,125.34
2023-02-05T04:30:02.324Z,125.63
2023-02-05T04:45:02.520Z,125.26
2023-02-05T05:00:01.985Z,125.71
2023-02-05T05:15:02.546Z,125.71
2023-02-05T05:30:01.609Z,125.46
2023-02-05T05:45:02.555Z,125.14
2023-02-05T06:00:02.080Z,124.17
2023-02-05T06:15:02.615Z,124.45
2023-02-05T06:30:01.663Z,124.37
2023-02-05T06:45:02.589Z,124.17
2023-02-05T07:00:02.168Z,123.77
2023-02-05T07:15:01.417Z,123.4
2023-02-05T07:30:01.704Z,121.82
2023-02-05T07:45:02.542Z,120.41
2023-02-05T08:00:01.565Z,119.96
2023-02-05T08:15:02.471Z,115.2
2023-02-05T08:30:02.040Z,110.94
2023-02-05T08:45:02.036Z,110.94
2023-02-05T09:00:02.647Z,110.94
2023-02-05T09:15:01.907Z,110.94
2023-02-05T09:30:02.286Z,110.94
2023-02-05T09:45:02.051Z,110.94
2023-02-05T10:00:02.582Z,110.94
2023-02-05T10:15:01.552Z,110.94
2023-02-05T10:30:01.937Z,110.94
2023-02-05T10:45:02.197Z,110.94
2023-02-05T11:00:02.452Z,110.94
2023-02-05T11:15:02.874Z,110.94
2023-02-05T11:30:01.618Z,110.94
2023-02-05T11:45:01.956Z,110.94
2023-02-05T12:00:02.384Z,110.94
2023-02-05T12:15:02.943Z,110.94
2023-02-05T12:30:03.362Z,110.94
2023-02-05T12:45:01.808Z,110.94
2023-02-05T13:00:02.367Z,110.94
2023-02-05T13:15:02.890Z,110.94
2023-02-05T13:30:04.614Z,110.94
2023-02-05T13:45:01.741Z,110.94
2023-02-05T14:00:02.299Z,110.94
2023-02-05T14:15:01.535Z,110.94
2023-02-05T14:30:01.853Z,110.94
2023-02-05T14:45:02.197Z,110.94
2023-02-05T15:00:02.412Z,110.94
2023-02-05T15:15:02.806Z,110.94
2023-02-05T15:30:01.705Z,110.94
2023-02-05T15:45:01.937Z,110.94
2023-02-05T16:00:02.492Z,110.94
2023-02-05T16:15:02.851Z,110.94
2023-02-05T16:30:01.665Z,110.94
2023-02-05T16:45:01.899Z,110.94
2023-02-05T17:00:02.344Z,110.94
2023-02-05T17:15:02.636Z,110.94
2023-02-05T17:30:01.502Z,110.94
2023-02-05T17:45:01.838Z,110.94
2023-02-05T18:00:02.189Z,110.94
2023-02-05T18:15:02.586Z,110.94
2023-02-05T18:30:01.435Z,110.94
2023-02-05T18:45:01.742Z,110.94
2023-02-05T19:00:02.108Z,110.94
2023-02-05T19:15:02.578Z,110.94
2023-02-05T19:30:03.081Z,110.94
2023-02-05T19:45:01.587Z,110.94
2023-02-05T20:00:01.926Z,125.87
2023-02-05T20:15:02.127Z,125.87
2023-02-05T20:30:02.733Z,125.87
2023-02-05T20:45:01.322Z,125.87
2023-02-05T21:00:01.718Z,125.87
2023-02-05T21:15:02.250Z,125.87
2023-02-05T21:30:02.719Z,125.87
2023-02-05T21:45:01.924Z,125.87
2023-02-05T22:00:02.295Z,125.87
2023-02-05T22:15:01.962Z,125.87
2023-02-05T22:30:02.524Z,125.87
2023-02-05T22:45:01.336Z,125.87
2023-02-05T23:00:01.749Z,125.87
2023-02-05T23:15:02.018Z,125.87
2023-02-05T23:30:02.394Z,125.87
2023-02-05T23:45:01.679Z,125.87
